createdAt,value
2019-02-21T00:02:31.049Z,7.12
2019-02-21T00:05:32.988Z,7.15
2019-02-21T00:08:34.931Z,7.16
2019-02-21T00:11:37.346Z,7.18
2019-02-21T00:14:39.424Z,7.21
2019-02-21T00:17:41.426Z,7.23
2019-02-21T00:20:43.505Z,7.24
2019-02-21T00:23:45.502Z,7.29
2019-02-21T00:26:47.481Z,7.32
2019-02-21T00:29:49.413Z,7.28
2019-02-21T00:32:51.321Z,7.23
2019-02-21T00:35:53.400Z,7.17
2019-02-21T00:38:55.400Z,7.17
2019-02-21T00:41:57.371Z,7.18
2019-02-21T00:44:59.319Z,7.18
2019-02-21T00:48:01.436Z,7.14
2019-02-21T00:51:03.358Z,7.16
2019-02-21T00:54:05.308Z,7.18
2019-02-21T00:57:07.305Z,7.20
2019-02-21T01:00:11.831Z,7.19
2019-02-21T01:03:13.779Z,7.20
2019-02-21T01:06:15.775Z,7.16
2019-02-21T01:09:17.852Z,7.17
2019-02-21T01:12:19.924Z,7.16
2019-02-21T01:15:21.840Z,7.16
2019-02-21T01:18:23.820Z,7.15
2019-02-21T01:21:25.692Z,7.15
2019-02-21T01:24:27.663Z,7.17
2019-02-21T01:27:29.629Z,7.18
2019-02-21T01:30:31.536Z,7.19
2019-02-21T01:33:33.507Z,7.24
2019-02-21T01:36:35.527Z,7.24
2019-02-21T01:39:37.498Z,7.24
2019-02-21T01:42:39.450Z,7.17
2019-02-21T01:45:41.555Z,7.15
2019-02-21T01:48:43.452Z,7.16
2019-02-21T01:51:45.345Z,7.14
2019-02-21T01:54:47.215Z,7.10
2019-02-21T01:57:49.958Z,7.07
2019-02-21T02:00:51.941Z,7.03
2019-02-21T02:03:53.898Z,6.99
2019-02-21T02:06:55.801Z,7.01
2019-02-21T02:09:57.822Z,6.97
2019-02-21T02:12:59.707Z,6.97
2019-02-21T02:16:01.611Z,6.97
2019-02-21T02:19:03.515Z,6.95
2019-02-21T02:22:05.402Z,6.96
2019-02-21T02:25:07.347Z,6.97
2019-02-21T02:28:09.410Z,6.95
2019-02-21T02:31:22.100Z,6.93
2019-02-21T02:34:15.992Z,6.91
2019-02-21T02:37:18.002Z,6.91
2019-02-21T02:40:19.875Z,6.87
2019-02-21T02:43:22.315Z,6.86
2019-02-21T02:46:24.230Z,6.85
2019-02-21T02:49:26.181Z,6.83
2019-02-21T02:52:28.087Z,6.81
2019-02-21T02:55:30.021Z,6.81
2019-02-21T02:58:32.029Z,6.83
2019-02-21T03:01:35.190Z,6.87
2019-02-21T03:04:37.581Z,6.86
2019-02-21T03:07:39.505Z,6.83
2019-02-21T03:10:41.404Z,6.83
2019-02-21T03:13:43.303Z,6.80
2019-02-21T03:16:45.258Z,6.78
2019-02-21T03:19:47.218Z,6.76
2019-02-21T03:22:49.551Z,6.71
2019-02-21T03:25:52.270Z,6.66
2019-02-21T03:28:54.245Z,6.68
2019-02-21T03:31:56.510Z,6.66
2019-02-21T03:34:58.650Z,6.65
2019-02-21T03:38:00.807Z,6.65
2019-02-21T03:41:02.873Z,6.62
2019-02-21T03:44:04.874Z,6.58
2019-02-21T03:47:06.787Z,6.53
2019-02-21T03:50:09.957Z,6.51
2019-02-21T03:53:11.836Z,6.48
2019-02-21T03:56:13.785Z,6.44
2019-02-21T03:59:16.131Z,6.47
2019-02-21T04:02:18.037Z,6.45
2019-02-21T04:05:20.061Z,6.43
2019-02-21T04:08:22.165Z,6.41
2019-02-21T04:11:24.048Z,6.41
2019-02-21T04:14:26.126Z,6.38
2019-02-21T04:17:28.021Z,6.35
2019-02-21T04:20:29.942Z,6.34
2019-02-21T04:23:31.815Z,6.32
2019-02-21T04:26:33.716Z,6.31
2019-02-21T04:29:35.653Z,6.27
2019-02-21T04:32:37.596Z,6.26
2019-02-21T04:35:39.542Z,6.25
2019-02-21T04:38:41.582Z,6.25
2019-02-21T04:41:43.456Z,6.18
2019-02-21T04:44:45.354Z,6.17
2019-02-21T04:47:47.243Z,6.19
2019-02-21T04:50:49.208Z,6.22
2019-02-21T04:53:51.107Z,6.26
2019-02-21T04:56:53.096Z,6.26
2019-02-21T04:59:56.186Z,6.30
2019-02-21T05:02:58.126Z,6.30
2019-02-21T05:06:00.026Z,6.26
2019-02-21T05:09:01.965Z,6.24
2019-02-21T05:12:05.675Z,6.23
2019-02-21T05:15:08.998Z,6.15
2019-02-21T05:18:10.947Z,6.16
2019-02-21T05:21:12.823Z,6.11
2019-02-21T05:24:14.813Z,6.04
2019-02-21T05:27:18.547Z,5.97
2019-02-21T05:30:22.377Z,5.94
2019-02-21T05:33:41.517Z,5.88
2019-02-21T05:36:51.071Z,5.83
2019-02-21T05:40:03.129Z,5.72
2019-02-21T05:43:06.724Z,5.66
2019-02-21T05:46:13.472Z,5.59
2019-02-21T05:49:20.231Z,5.54
2019-02-21T05:52:26.816Z,5.53
2019-02-21T05:55:30.486Z,5.52
2019-02-21T05:58:37.018Z,5.50
2019-02-21T06:01:40.831Z,5.52
2019-02-21T06:04:47.464Z,5.52
2019-02-21T06:08:05.985Z,5.56
2019-02-21T06:11:18.030Z,5.62
2019-02-21T06:14:24.012Z,5.68
2019-02-21T06:17:30.718Z,5.74
2019-02-21T06:20:40.927Z,5.80
2019-02-21T06:23:49.226Z,5.91
2019-02-21T06:26:53.173Z,6.12
2019-02-21T06:30:00.348Z,6.20
2019-02-21T06:33:05.402Z,6.24
2019-02-21T06:36:06.595Z,6.30
2019-02-21T06:39:08.513Z,6.28
2019-02-21T06:42:10.564Z,6.35
2019-02-21T06:45:12.490Z,6.41
2019-02-21T06:48:14.433Z,6.44
2019-02-21T06:51:16.347Z,6.48
2019-02-21T06:54:18.529Z,6.55
2019-02-21T06:57:20.453Z,6.63
2019-02-21T07:00:22.461Z,6.76
2019-02-21T07:03:25.971Z,6.97
2019-02-21T07:06:31.989Z,7.33
2019-02-21T07:09:31.856Z,7.79
2019-02-21T07:12:33.831Z,8.28
2019-02-21T07:15:35.779Z,8.75
2019-02-21T07:18:37.757Z,9.11
2019-02-21T07:21:39.650Z,9.19
2019-02-21T07:24:42.738Z,9.32
2019-02-21T07:27:44.628Z,9.41
2019-02-21T07:30:47.175Z,9.50
2019-02-21T07:33:49.195Z,9.57
2019-02-21T07:36:51.123Z,9.46
2019-02-21T07:39:53.141Z,9.40
2019-02-21T07:42:55.299Z,9.35
2019-02-21T07:45:57.226Z,9.39
2019-02-21T07:49:00.299Z,9.59
2019-02-21T07:52:02.211Z,9.96
2019-02-21T07:55:06.815Z,10.13
2019-02-21T07:58:08.734Z,10.42
2019-02-21T08:01:10.694Z,10.66
2019-02-21T08:04:14.420Z,10.77
2019-02-21T08:07:16.359Z,10.74
2019-02-21T08:10:21.048Z,10.62
2019-02-21T08:13:22.198Z,10.62
2019-02-21T08:16:24.165Z,10.51
2019-02-21T08:19:26.051Z,10.41
2019-02-21T08:22:28.005Z,10.31
2019-02-21T08:25:29.993Z,10.33
2019-02-21T08:28:31.859Z,10.35
2019-02-21T08:31:34.883Z,10.49
2019-02-21T08:34:38.694Z,10.52
2019-02-21T08:37:40.650Z,10.39
2019-02-21T08:40:42.564Z,10.31
2019-02-21T08:43:44.609Z,10.32
2019-02-21T08:46:46.537Z,10.38
2019-02-21T08:49:48.503Z,10.46
2019-02-21T08:52:50.445Z,10.45
2019-02-21T08:55:52.419Z,10.57
2019-02-21T08:58:54.418Z,10.61
2019-02-21T09:01:56.484Z,10.63
2019-02-21T09:04:59.038Z,10.72
2019-02-21T09:08:01.022Z,10.77
2019-02-21T09:11:04.043Z,10.84
2019-02-21T09:14:06.275Z,11.00
2019-02-21T09:17:08.262Z,11.14
2019-02-21T09:20:10.765Z,11.42
2019-02-21T09:23:15.659Z,11.69
2019-02-21T09:26:16.707Z,11.87
2019-02-21T09:29:18.603Z,11.96
2019-02-21T09:32:20.499Z,12.00
2019-02-21T09:35:22.592Z,12.08
2019-02-21T09:38:24.491Z,12.08
2019-02-21T09:41:28.554Z,12.19
2019-02-21T09:44:30.394Z,12.25
2019-02-21T09:47:32.303Z,12.31
2019-02-21T09:50:34.288Z,12.29
2019-02-21T09:53:36.235Z,12.40
2019-02-21T09:56:38.196Z,12.34
2019-02-21T09:59:40.075Z,12.26
2019-02-21T10:02:42.218Z,12.32
2019-02-21T10:05:44.438Z,12.28
2019-02-21T10:08:46.401Z,12.19
2019-02-21T10:11:48.327Z,12.21
2019-02-21T10:14:50.282Z,12.12
2019-02-21T10:17:52.226Z,12.05
2019-02-21T10:20:54.192Z,12.13
2019-02-21T10:23:56.876Z,12.11
2019-02-21T10:26:59.292Z,12.13
2019-02-21T10:30:01.157Z,12.12
2019-02-21T10:33:03.113Z,12.11
2019-02-21T10:36:05.101Z,12.03
2019-02-21T10:39:07.031Z,11.92
2019-02-21T10:42:08.965Z,11.89
2019-02-21T10:45:14.396Z,11.79
2019-02-21T10:48:16.311Z,11.60
2019-02-21T10:51:18.289Z,11.40
2019-02-21T10:54:20.197Z,11.21
2019-02-21T10:57:22.297Z,11.12
2019-02-21T11:00:26.722Z,11.13
2019-02-21T11:03:28.734Z,11.14
2019-02-21T11:06:31.202Z,11.26
2019-02-21T11:09:33.167Z,11.47
2019-02-21T11:12:35.083Z,11.71
2019-02-21T11:15:37.106Z,11.83
2019-02-21T11:18:39.059Z,11.99
2019-02-21T11:21:40.994Z,12.09
2019-02-21T11:24:43.036Z,12.18
2019-02-21T11:27:45.006Z,12.25
2019-02-21T11:30:46.995Z,12.36
2019-02-21T11:33:48.840Z,12.50
2019-02-21T11:36:50.851Z,12.51
2019-02-21T11:39:52.859Z,12.49
2019-02-21T11:42:54.844Z,12.43
2019-02-21T11:45:57.514Z,12.42
2019-02-21T11:48:59.662Z,12.38
2019-02-21T11:52:09.813Z,12.30
2019-02-21T11:55:08.639Z,12.26
2019-02-21T11:58:11.820Z,12.48
2019-02-21T12:01:13.815Z,12.59
2019-02-21T12:04:15.761Z,12.60
2019-02-21T12:07:17.934Z,12.47
2019-02-21T12:10:20.034Z,12.40
2019-02-21T12:13:22.009Z,12.31
2019-02-21T12:16:23.951Z,12.26
2019-02-21T12:19:25.957Z,12.31
2019-02-21T12:22:27.897Z,12.45
2019-02-21T12:25:29.853Z,12.60
2019-02-21T12:28:35.233Z,12.72
2019-02-21T12:31:37.274Z,12.85
2019-02-21T12:34:39.343Z,12.78
2019-02-21T12:37:41.305Z,12.65
2019-02-21T12:40:43.231Z,12.51
2019-02-21T12:43:45.198Z,12.43
2019-02-21T12:46:47.353Z,12.27
2019-02-21T12:49:49.256Z,12.29
2019-02-21T12:52:51.229Z,12.08
2019-02-21T12:55:53.161Z,12.06
2019-02-21T12:58:55.154Z,11.88
2019-02-21T13:01:57.061Z,11.69
2019-02-21T13:04:59.038Z,11.37
2019-02-21T13:08:01.043Z,11.20
2019-02-21T13:11:03.068Z,11.06
2019-02-21T13:14:04.989Z,11.01
2019-02-21T13:17:07.571Z,10.95
2019-02-21T13:20:12.185Z,10.86
2019-02-21T13:23:14.358Z,10.68
2019-02-21T13:26:16.693Z,10.54
2019-02-21T13:29:18.700Z,10.49
2019-02-21T13:32:20.578Z,10.42
2019-02-21T13:35:22.484Z,10.33
2019-02-21T13:38:24.515Z,10.25
2019-02-21T13:41:26.442Z,10.16
2019-02-21T13:44:28.361Z,10.04
2019-02-21T13:47:30.543Z,9.99
2019-02-21T13:50:32.543Z,9.97
2019-02-21T13:53:34.459Z,9.90
2019-02-21T13:56:36.484Z,9.89
2019-02-21T13:59:38.342Z,9.85
2019-02-21T14:02:40.247Z,9.86
2019-02-21T14:05:42.179Z,9.87
2019-02-21T14:08:44.842Z,9.82
2019-02-21T14:11:47.905Z,9.80
2019-02-21T14:14:49.993Z,9.75
2019-02-21T14:17:51.899Z,9.64
2019-02-21T14:20:53.841Z,9.56
2019-02-21T14:23:55.773Z,9.42
2019-02-21T14:26:57.711Z,9.34
2019-02-21T14:29:59.719Z,9.27
2019-02-21T14:33:01.660Z,9.20
2019-02-21T14:36:15.208Z,9.07
2019-02-21T14:39:10.628Z,8.89
2019-02-21T14:42:13.033Z,8.75
2019-02-21T14:45:20.498Z,8.60
2019-02-21T14:48:22.568Z,8.57
2019-02-21T14:51:24.498Z,8.50
2019-02-21T14:54:26.453Z,8.52
2019-02-21T14:57:28.439Z,8.58
2019-02-21T15:00:30.407Z,8.64
2019-02-21T15:03:32.306Z,8.65
2019-02-21T15:06:34.550Z,8.69
2019-02-21T15:09:36.567Z,8.57
2019-02-21T15:12:38.672Z,8.66
2019-02-21T15:15:40.792Z,8.68
2019-02-21T15:18:42.795Z,8.65
2019-02-21T15:21:44.797Z,8.66
2019-02-21T15:24:49.351Z,8.68
2019-02-21T15:27:51.224Z,8.69
2019-02-21T15:30:54.264Z,8.71
2019-02-21T15:33:56.259Z,8.73
2019-02-21T15:36:58.380Z,8.68
2019-02-21T15:40:01.115Z,8.65
2019-02-21T15:43:05.301Z,8.66
2019-02-21T15:46:07.564Z,8.69
2019-02-21T15:49:09.729Z,8.67
2019-02-21T15:52:21.777Z,8.67
2019-02-21T15:55:17.553Z,8.62
2019-02-21T15:58:22.043Z,8.58
2019-02-21T16:01:24.085Z,8.54
2019-02-21T16:04:26.220Z,8.47
2019-02-21T16:07:28.699Z,8.47
2019-02-21T16:10:30.785Z,8.40
2019-02-21T16:13:32.970Z,8.39
2019-02-21T16:16:35.512Z,8.36
2019-02-21T16:19:37.510Z,8.37
2019-02-21T16:22:39.641Z,8.34
2019-02-21T16:25:41.528Z,8.34
2019-02-21T16:28:46.189Z,8.33
2019-02-21T16:31:50.477Z,8.30
2019-02-21T16:34:54.407Z,8.29
2019-02-21T16:37:56.397Z,8.25
2019-02-21T16:41:03.028Z,8.29
2019-02-21T16:44:07.092Z,8.29
2019-02-21T16:47:09.497Z,8.24
2019-02-21T16:50:13.855Z,8.28
2019-02-21T16:53:15.778Z,8.20
2019-02-21T16:56:20.077Z,8.18
2019-02-21T16:59:25.471Z,8.15
2019-02-21T17:02:27.469Z,8.11
2019-02-21T17:05:29.498Z,8.06
2019-02-21T17:08:31.938Z,8.08
2019-02-21T17:11:35.593Z,8.07
2019-02-21T17:14:37.551Z,8.04
2019-02-21T17:17:39.594Z,8.04
2019-02-21T17:20:41.576Z,8.01
2019-02-21T17:23:43.612Z,8.00
2019-02-21T17:26:47.833Z,8.01
2019-02-21T17:29:50.931Z,7.99
2019-02-21T17:32:52.964Z,8.02
2019-02-21T17:35:56.757Z,7.95
2019-02-21T17:38:59.110Z,8.07
2019-02-21T17:42:02.507Z,8.07
2019-02-21T17:45:05.969Z,8.09
2019-02-21T17:48:07.957Z,8.09
2019-02-21T17:51:14.258Z,8.08
2019-02-21T17:54:17.861Z,8.06
2019-02-21T17:57:21.066Z,8.03
2019-02-21T18:00:28.405Z,8.06
2019-02-21T18:03:33.916Z,8.06
2019-02-21T18:06:36.193Z,8.07
2019-02-21T18:09:38.521Z,8.02
2019-02-21T18:12:43.919Z,8.08
2019-02-21T18:15:46.888Z,8.04
2019-02-21T18:18:48.807Z,7.98
2019-02-21T18:21:57.901Z,7.95
2019-02-21T18:25:01.333Z,7.94
2019-02-21T18:28:03.753Z,7.95
2019-02-21T18:31:05.658Z,7.94
2019-02-21T18:34:07.563Z,7.87
2019-02-21T18:37:10.853Z,7.80
2019-02-21T18:40:17.785Z,7.78
2019-02-21T18:43:21.719Z,7.83
2019-02-21T18:46:23.731Z,7.84
2019-02-21T18:49:25.716Z,7.89
2019-02-21T18:52:28.518Z,7.90
2019-02-21T18:55:30.984Z,7.92
2019-02-21T18:58:33.325Z,7.96
2019-02-21T19:01:35.404Z,8.02
2019-02-21T19:04:37.506Z,8.14
2019-02-21T19:07:39.495Z,8.20
2019-02-21T19:10:41.504Z,8.27
2019-02-21T19:13:46.932Z,8.29
2019-02-21T19:16:51.080Z,8.31
2019-02-21T19:19:55.542Z,8.38
2019-02-21T19:22:58.511Z,8.40
2019-02-21T19:26:00.474Z,8.39
2019-02-21T19:29:03.642Z,8.43
2019-02-21T19:32:05.586Z,8.41
2019-02-21T19:35:09.048Z,8.39
2019-02-21T19:38:12.808Z,8.42
2019-02-21T19:41:15.410Z,8.40
2019-02-21T19:44:18.447Z,8.46
2019-02-21T19:47:23.753Z,8.49
2019-02-21T19:50:26.078Z,8.51
2019-02-21T19:53:28.384Z,8.51
2019-02-21T19:56:31.732Z,8.51
2019-02-21T19:59:35.788Z,8.52
2019-02-21T20:02:40.137Z,8.48
2019-02-21T20:05:42.153Z,8.48
2019-02-21T20:08:45.499Z,8.49
2019-02-21T20:11:50.660Z,8.51
2019-02-21T20:14:54.320Z,8.54
2019-02-21T20:17:59.305Z,8.54
2019-02-21T20:21:01.276Z,8.55
2019-02-21T20:24:09.091Z,8.58
2019-02-21T20:27:13.628Z,8.59
2019-02-21T20:30:17.082Z,8.62
2019-02-21T20:33:20.335Z,8.64
2019-02-21T20:36:22.346Z,8.63
2019-02-21T20:39:24.706Z,8.62
2019-02-21T20:42:26.651Z,8.64
2019-02-21T20:45:28.667Z,8.65
2019-02-21T20:48:36.560Z,8.62
2019-02-21T20:51:38.475Z,8.62
2019-02-21T20:54:43.717Z,8.57
2019-02-21T20:57:45.746Z,8.53
2019-02-21T21:00:47.716Z,8.59
2019-02-21T21:03:50.761Z,8.62
2019-02-21T21:06:53.848Z,8.63
2019-02-21T21:09:56.224Z,8.60
2019-02-21T21:13:02.430Z,8.58
2019-02-21T21:16:06.421Z,8.60
2019-02-21T21:19:09.833Z,8.60
2019-02-21T21:22:11.781Z,8.56
2019-02-21T21:25:17.436Z,8.55
2019-02-21T21:28:19.402Z,8.50
2019-02-21T21:31:21.310Z,8.48
2019-02-21T21:34:25.111Z,8.47
2019-02-21T21:37:27.022Z,8.44
2019-02-21T21:40:28.951Z,8.44
2019-02-21T21:43:30.844Z,8.45
2019-02-21T21:46:32.858Z,8.47
2019-02-21T21:49:34.922Z,8.43
2019-02-21T21:52:36.843Z,8.44
2019-02-21T21:55:38.790Z,8.44
2019-02-21T21:58:40.732Z,8.44
2019-02-21T22:01:42.703Z,8.43
2019-02-21T22:04:44.619Z,8.43
2019-02-21T22:07:49.081Z,8.46
2019-02-21T22:10:50.419Z,8.44
2019-02-21T22:13:52.670Z,8.46
2019-02-21T22:16:54.775Z,8.47
2019-02-21T22:19:56.795Z,8.47
2019-02-21T22:22:58.784Z,8.47
2019-02-21T22:26:00.889Z,8.47
2019-02-21T22:29:02.953Z,8.45
2019-02-21T22:32:04.912Z,8.44
2019-02-21T22:35:07.272Z,8.47
2019-02-21T22:38:09.306Z,8.48
2019-02-21T22:41:11.315Z,8.48
2019-02-21T22:44:13.353Z,8.49
2019-02-21T22:47:15.455Z,8.50
2019-02-21T22:50:18.486Z,8.51
2019-02-21T22:53:20.433Z,8.51
2019-02-21T22:56:22.408Z,8.51
2019-02-21T22:59:24.443Z,8.52
2019-02-21T23:02:27.742Z,8.54
2019-02-21T23:05:50.239Z,8.56
2019-02-21T23:08:53.554Z,8.55
2019-02-21T23:11:55.500Z,8.57
2019-02-21T23:14:57.585Z,8.55
2019-02-21T23:18:00.181Z,8.55
2019-02-21T23:21:02.327Z,8.58
2019-02-21T23:24:04.586Z,8.56
2019-02-21T23:27:06.595Z,8.57
2019-02-21T23:30:09.359Z,8.61
2019-02-21T23:33:11.412Z,8.61
2019-02-21T23:36:13.450Z,8.60
2019-02-21T23:39:15.449Z,8.62
2019-02-21T23:42:18.217Z,8.61
2019-02-21T23:45:20.534Z,8.65
2019-02-21T23:48:22.546Z,8.66
2019-02-21T23:51:24.584Z,8.67
2019-02-21T23:54:26.587Z,8.70
2019-02-21T23:57:28.638Z,8.74
